Main page
METAR-TAF:

METAR-TAF

Airports :

Richard B. Helgeson Airport

Two Harbors, Minnesota, United States

latitude: 47-03N, longitude: 091-45W, elevation: 328 m

Current weather observation

The report was made 37 minutes ago, at 02:55 UTC
Wind 5 kt from the East
Temperature 13°C
Humidity 100%
Pressure 1012 hPa
Visibility: 11.3 km
Overcast at a height of 400 ft
drizzle

METAR: KTWM 160255Z AUTO 09005KT 7SM DZ OVC004 13/13 A2988 RMK AO2

Time: 22:32 (03:32 UTC)


TAF: missing

Weather observations and forecasts of more than 4000 airports (METAR and TAF reports).

The available stations are represented by yellow and red dots on the map.

Hover mouse over dot to see the name of the station.

Then click to see weather observations and forecasts.

To change the map : click on the green buttons with a black cross to zoom in, on the green button with a dash to zoom out, or on the green arrows for adjacent maps.


METAR-TAF: